Time;durP1;ratioP1;P1;durP2;ratioP2;P2;SDS_P1;SDS_P2;PMS_P1;PMS_P2;Temp;Humidity;BMP_temperature;BMP_pressure;BME280_temperature;BME280_humidity;BME280_pressure;Samples;Min_cycle;Max_cycle;Signal;HPM_P1;HPM_P2
2022/04/24 00:00:26;;;;;;;10.73;8.27;;;;;;;5.59;75.25;97254.31;4203896;28;20113;-73
2022/04/24 00:02:27;;;;;;;12.93;8.75;;;;;;;5.52;75.71;97260.50;4203856;28;20036;-73
2022/04/24 00:04:27;;;;;;;11.35;8.57;;;;;;;5.44;75.98;97256.09;4203918;28;20385;-73
2022/04/24 00:06:28;;;;;;;14.65;9.38;;;;;;;5.42;74.87;97252.94;4203472;28;20049;-73
2022/04/24 00:08:28;;;;;;;10.80;9.07;;;;;;;5.32;75.76;97253.59;4204081;28;20075;-73
2022/04/24 00:10:29;;;;;;;12.18;9.18;;;;;;;5.26;75.61;97249.59;4209605;27;20078;-73
2022/04/24 00:12:29;;;;;;;15.73;9.20;;;;;;;5.28;75.07;97253.56;4203766;28;20094;-73
2022/04/24 00:14:29;;;;;;;12.85;8.48;;;;;;;5.22;75.96;97251.53;4204021;28;20517;-73
2022/04/24 00:16:29;;;;;;;12.45;8.30;;;;;;;5.14;76.12;97247.13;4203606;28;20056;-73
2022/04/24 00:18:30;;;;;;;13.23;8.57;;;;;;;5.13;76.08;97248.25;4203210;28;20051;-73
2022/04/24 00:20:30;;;;;;;13.15;9.32;;;;;;;5.08;76.37;97241.94;4203972;28;20034;-73
2022/04/24 00:22:30;;;;;;;11.57;8.48;;;;;;;5.02;77.03;97237.94;4214019;27;20059;-73
2022/04/24 00:24:32;;;;;;;11.65;7.93;;;;;;;4.99;77.81;97238.69;4206100;28;20047;-73
2022/04/24 00:26:32;;;;;;;10.15;7.80;;;;;;;4.98;78.94;97237.13;4201842;28;20089;-73
2022/04/24 00:28:33;;;;;;;15.18;8.48;;;;;;;5.01;78.30;97230.09;4203739;28;20052;-73
2022/04/24 00:30:33;;;;;;;16.65;9.93;;;;;;;5.00;76.40;97234.78;4212922;27;20063;-73
2022/04/24 00:32:33;;;;;;;11.00;7.88;;;;;;;5.00;77.09;97223.03;4203010;28;20847;-73
2022/04/24 00:34:34;;;;;;;11.75;8.13;;;;;;;4.96;77.87;97222.19;4203724;28;20532;-73
2022/04/24 00:36:34;;;;;;;12.35;8.70;;;;;;;5.03;76.22;97222.28;4202623;28;20044;-73
2022/04/24 00:38:35;;;;;;;11.68;8.50;;;;;;;5.03;77.54;97220.31;4203010;28;20040;-73
2022/04/24 00:40:35;;;;;;;11.00;8.32;;;;;;;5.00;77.90;97215.59;4203038;28;20411;-73
2022/04/24 00:42:36;;;;;;;13.68;8.70;;;;;;;5.03;79.13;97223.06;4210594;28;20044;-73
2022/04/24 00:44:36;;;;;;;10.43;8.05;;;;;;;4.98;78.75;97214.41;4215899;28;20039;-73
2022/04/24 00:46:50;;;;;;;11.48;8.38;;;;;;;4.92;79.37;97211.19;4207468;28;20040;-73
2022/04/24 00:48:51;;;;;;;11.98;9.00;;;;;;;4.87;79.72;97210.72;4202922;28;21315;-73
2022/04/24 00:50:51;;;;;;;11.13;8.35;;;;;;;4.79;80.08;97202.38;4206895;27;20092;-73
2022/04/24 00:52:51;;;;;;;11.63;7.90;;;;;;;4.78;79.71;97203.56;4203644;28;20052;-73
2022/04/24 00:54:52;;;;;;;11.85;8.65;;;;;;;4.78;78.99;97205.50;4205912;28;20044;-73
2022/04/24 00:56:52;;;;;;;11.77;8.52;;;;;;;4.70;79.28;97195.59;4204715;28;20040;-73
2022/04/24 00:58:53;;;;;;;13.27;7.95;;;;;;;4.71;77.95;97210.88;4203435;28;20067;-73
2022/04/24 01:00:55;;;;;;;11.32;8.75;;;;;;;4.65;79.04;97202.22;4202056;28;20379;-73
2022/04/24 01:02:56;;;;;;;12.13;8.45;;;;;;;4.62;79.33;97199.41;4203112;28;20357;-73
2022/04/24 01:04:57;;;;;;;12.07;8.50;;;;;;;4.61;79.83;97203.31;4203079;28;20234;-73
2022/04/24 01:06:57;;;;;;;16.10;10.23;;;;;;;4.59;79.64;97200.16;4202249;28;20040;-73
2022/04/24 01:09:17;;;;;;;13.15;9.07;;;;;;;4.60;78.04;97199.00;4202480;28;20126;-73
2022/04/24 01:11:18;;;;;;;15.77;10.68;;;;;;;4.55;78.88;97196.56;4203852;28;20109;-73
2022/04/24 01:13:18;;;;;;;19.08;13.80;;;;;;;4.52;80.02;97200.84;4203076;28;20139;-73
2022/04/24 01:15:19;;;;;;;20.83;12.77;;;;;;;4.52;79.18;97195.38;4202711;28;20040;-73
2022/04/24 01:17:19;;;;;;;21.00;13.85;;;;;;;4.47;79.70;97193.75;4202264;28;20042;-73
2022/04/24 01:19:20;;;;;;;21.13;14.48;;;;;;;4.44;81.05;97190.94;4203112;28;20040;-73
2022/04/24 01:21:21;;;;;;;17.83;11.52;;;;;;;4.41;81.62;97195.22;4201740;28;20139;-73
2022/04/24 01:23:21;;;;;;;17.65;12.23;;;;;;;4.38;81.18;97184.97;4205832;28;20080;-73
2022/04/24 01:25:21;;;;;;;14.57;10.65;;;;;;;4.39;80.26;97194.78;4206396;28;20055;-73
2022/04/24 01:27:22;;;;;;;12.88;10.43;;;;;;;4.36;82.17;97192.00;4205824;28;20048;-73
2022/04/24 01:29:22;;;;;;;12.77;10.30;;;;;;;4.30;82.69;97183.28;4207396;28;20399;-73
2022/04/24 01:31:23;;;;;;;16.58;10.52;;;;;;;4.26;82.01;97173.47;4211858;27;20039;-73
2022/04/24 01:33:23;;;;;;;12.25;10.25;;;;;;;4.22;82.01;97170.69;4206574;28;20040;-73
2022/04/24 01:35:24;;;;;;;14.07;10.05;;;;;;;4.23;81.07;97173.03;4212891;27;20042;-73
2022/04/24 01:37:24;;;;;;;14.13;10.27;;;;;;;4.18;81.54;97161.59;4205096;28;20131;-73
2022/04/24 01:39:24;;;;;;;14.25;9.77;;;;;;;4.12;81.46;97163.84;4206374;28;20453;-73
2022/04/24 01:41:25;;;;;;;20.17;10.30;;;;;;;4.12;80.98;97171.28;4206188;28;20040;-73
2022/04/24 01:43:25;;;;;;;12.90;9.15;;;;;;;4.11;80.53;97158.75;4206115;28;20186;-73
2022/04/24 01:45:25;;;;;;;13.45;9.18;;;;;;;4.11;81.76;97165.00;4206183;28;20040;-73
2022/04/24 01:47:26;;;;;;;14.10;9.80;;;;;;;4.06;82.89;97157.13;4205556;28;20052;-73
2022/04/24 01:49:26;;;;;;;11.65;9.25;;;;;;;4.02;82.77;97164.47;4210567;28;20054;-73
2022/04/24 01:51:27;;;;;;;16.08;10.35;;;;;;;4.04;85.26;97156.69;4209977;28;20039;-72
2022/04/24 01:53:28;;;;;;;14.45;10.88;;;;;;;4.03;86.44;97148.84;4205869;28;20036;-73
2022/04/24 01:55:29;;;;;;;13.55;10.48;;;;;;;4.04;86.62;97159.44;4210810;27;20058;-73
2022/04/24 01:57:29;;;;;;;15.30;10.30;;;;;;;4.03;85.17;97170.75;4205177;28;20043;-73
2022/04/24 01:59:29;;;;;;;16.98;11.68;;;;;;;4.02;85.44;97164.47;4206168;28;20044;-73
2022/04/24 02:01:29;;;;;;;14.45;10.02;;;;;;;4.06;86.26;97164.56;4211162;28;20044;-73
2022/04/24 02:03:30;;;;;;;14.55;10.13;;;;;;;4.09;86.18;97167.34;4206152;28;20388;-73
2022/04/24 02:05:31;;;;;;;15.90;11.23;;;;;;;4.09;86.36;97172.03;4205901;28;20130;-72
2022/04/24 02:07:31;;;;;;;14.45;10.25;;;;;;;4.09;86.33;97177.50;4214212;28;20071;-73
2022/04/24 02:09:33;;;;;;;20.55;11.10;;;;;;;4.11;86.84;97180.66;4214187;28;20079;-73
2022/04/24 02:11:34;;;;;;;14.43;10.13;;;;;;;4.18;86.70;97170.59;4204394;28;20047;-73
2022/04/24 02:13:34;;;;;;;14.82;11.02;;;;;;;4.22;87.21;97157.78;4205405;28;20035;-73
2022/04/24 02:15:35;;;;;;;15.20;10.95;;;;;;;4.32;87.40;97170.03;4205797;28;20060;-73
2022/04/24 02:17:36;;;;;;;14.57;10.40;;;;;;;4.45;87.34;97171.38;4204925;28;20048;-73
2022/04/24 02:19:37;;;;;;;14.63;10.63;;;;;;;4.54;86.52;97171.13;4210849;28;20468;-73
2022/04/24 02:21:37;;;;;;;15.18;10.35;;;;;;;4.69;86.34;97172.13;4205641;28;20118;-73
2022/04/24 02:23:37;;;;;;;17.92;11.38;;;;;;;4.79;85.33;97163.25;4204997;28;20190;-73
2022/04/24 02:25:38;;;;;;;15.38;11.27;;;;;;;4.89;85.36;97167.31;4205556;28;20036;-73
2022/04/24 02:27:38;;;;;;;15.90;10.45;;;;;;;4.93;84.97;97160.69;4205267;28;20052;-73
2022/04/24 02:29:39;;;;;;;16.48;11.13;;;;;;;5.00;83.71;97158.03;4209864;28;20040;-73
2022/04/24 02:31:40;;;;;;;16.08;11.27;;;;;;;5.00;83.72;97160.00;4206346;28;20476;-73
2022/04/24 02:33:40;;;;;;;16.08;10.75;;;;;;;5.04;84.11;97160.81;4204480;28;20071;-73
2022/04/24 02:35:41;;;;;;;15.90;11.23;;;;;;;5.01;84.30;97156.09;4204854;28;20116;-73
2022/04/24 02:37:42;;;;;;;15.27;11.00;;;;;;;5.03;84.39;97157.28;4204457;28;20473;-73
2022/04/24 02:39:42;;;;;;;18.58;10.38;;;;;;;5.03;83.72;97151.78;4204697;28;20036;-73
2022/04/24 02:41:42;;;;;;;15.68;10.30;;;;;;;5.06;83.39;97153.03;4205618;28;20048;-73
2022/04/24 02:43:43;;;;;;;16.55;11.00;;;;;;;5.10;83.03;97142.09;4211102;28;20071;-72
2022/04/24 02:45:43;;;;;;;17.02;11.23;;;;;;;5.14;83.10;97142.94;4205729;28;20040;-73
2022/04/24 02:47:44;;;;;;;15.80;10.77;;;;;;;5.15;82.08;97134.31;4204357;28;20044;-73
2022/04/24 02:49:44;;;;;;;15.30;10.23;;;;;;;5.18;82.21;97144.53;4204476;28;20150;-73
2022/04/24 02:51:45;;;;;;;14.23;11.30;;;;;;;5.15;81.97;97131.59;4204915;28;20131;-73
2022/04/24 02:53:45;;;;;;;14.90;10.68;;;;;;;5.15;82.26;97145.28;4209428;28;20529;-73
2022/04/24 02:55:45;;;;;;;15.60;11.10;;;;;;;5.22;82.13;97144.59;4204964;28;20040;-72
2022/04/24 02:57:46;;;;;;;15.80;10.38;;;;;;;5.22;82.32;97145.38;4208239;28;20044;-73
2022/04/24 02:59:50;;;;;;;15.60;11.13;;;;;;;5.21;81.84;97142.97;4213061;27;20040;-73
2022/04/24 03:01:50;;;;;;;15.10;10.88;;;;;;;5.17;81.89;97144.91;4204969;28;20052;-73
2022/04/24 03:03:50;;;;;;;15.02;10.63;;;;;;;5.14;82.81;97149.19;4210931;28;20053;-72
2022/04/24 03:05:52;;;;;;;14.02;11.35;;;;;;;5.09;82.95;97149.53;4204392;28;20164;-72
2022/04/24 03:07:52;;;;;;;15.45;10.65;;;;;;;5.03;83.11;97140.03;4204115;28;20044;-73
2022/04/24 03:09:52;;;;;;;17.42;11.18;;;;;;;4.96;83.20;97148.97;4203728;28;20184;-73
2022/04/24 03:11:53;;;;;;;15.55;10.88;;;;;;;4.96;82.58;97161.88;4204604;28;20500;-73
2022/04/24 03:13:53;;;;;;;16.63;11.70;;;;;;;4.96;82.46;97148.97;4204976;28;20131;-73
2022/04/24 03:15:53;;;;;;;14.65;10.73;;;;;;;4.93;83.25;97146.97;4205190;28;20153;-73
2022/04/24 03:17:54;;;;;;;18.35;10.80;;;;;;;4.98;82.54;97148.63;4203796;28;20675;-73
2022/04/24 03:19:55;;;;;;;16.05;11.40;;;;;;;4.98;83.20;97146.66;4204795;28;20046;-73
2022/04/24 03:21:55;;;;;;;14.82;10.68;;;;;;;4.97;83.15;97147.84;4214271;27;20323;-73
2022/04/24 03:23:55;;;;;;;14.88;11.45;;;;;;;4.96;83.08;97148.97;4204516;28;20418;-73
2022/04/24 03:25:56;;;;;;;16.38;11.18;;;;;;;4.95;83.18;97146.59;4204485;28;20063;-73
2022/04/24 03:27:56;;;;;;;15.98;11.13;;;;;;;4.91;83.11;97145.78;4202927;28;20040;-73
2022/04/24 03:29:57;;;;;;;17.73;11.82;;;;;;;4.89;83.37;97148.13;4204341;28;20229;-73
2022/04/24 03:31:57;;;;;;;16.60;11.82;;;;;;;4.87;83.21;97145.72;4204074;28;20047;-73
2022/04/24 03:33:58;;;;;;;16.38;11.70;;;;;;;4.87;82.99;97147.69;4204085;28;20218;-73
2022/04/24 03:35:58;;;;;;;17.73;10.95;;;;;;;4.83;82.73;97146.88;4204841;28;20040;-73
2022/04/24 03:37:59;;;;;;;17.38;10.98;;;;;;;4.82;83.55;97157.03;4204800;28;20407;-73
2022/04/24 03:39:59;;;;;;;17.40;11.95;;;;;;;4.73;83.71;97149.09;4211185;27;20036;-73
2022/04/24 03:41:59;;;;;;;15.80;11.70;;;;;;;4.72;83.46;97147.53;4212627;27;20063;-73
2022/04/24 03:44:00;;;;;;;16.75;11.20;;;;;;;4.68;83.25;97151.34;4203698;28;20084;-73
2022/04/24 03:46:01;;;;;;;17.65;11.98;;;;;;;4.65;82.91;97149.38;4204347;28;20682;-73
2022/04/24 03:48:01;;;;;;;16.60;11.48;;;;;;;4.62;83.09;97147.34;4202509;28;20849;-73
2022/04/24 03:50:03;;;;;;;17.77;11.52;;;;;;;4.59;83.73;97148.91;4204004;28;20036;-73
2022/04/24 03:52:04;;;;;;;16.35;11.70;;;;;;;4.53;83.71;97141.38;4204112;28;20051;-73
2022/04/24 03:54:04;;;;;;;17.10;11.35;;;;;;;4.50;84.17;97145.66;4208808;28;20032;-73
2022/04/24 03:56:05;;;;;;;17.23;11.10;;;;;;;4.48;84.78;97147.97;4205688;28;20038;-73
2022/04/24 03:58:05;;;;;;;17.95;11.75;;;;;;;4.45;84.78;97146.75;4203221;28;20032;-73
2022/04/24 04:00:07;;;;;;;15.25;11.27;;;;;;;4.42;85.24;97138.50;4210700;28;20055;-73
2022/04/24 04:02:08;;;;;;;17.10;11.38;;;;;;;4.41;85.47;97151.41;4208427;28;20035;-73
2022/04/24 04:04:08;;;;;;;19.25;12.20;;;;;;;4.39;85.34;97148.25;4203453;28;20468;-73
2022/04/24 04:06:09;;;;;;;21.98;11.95;;;;;;;4.41;85.24;97150.59;4203450;28;20032;-72
2022/04/24 04:08:09;;;;;;;16.00;11.73;;;;;;;4.42;85.37;97152.19;4202967;28;20206;-73
2022/04/24 04:10:09;;;;;;;17.13;12.32;;;;;;;4.40;85.21;97152.56;4208983;27;20076;-73
2022/04/24 04:12:13;;;;;;;16.75;11.80;;;;;;;4.40;85.11;97152.56;4203728;28;20444;-73
2022/04/24 04:14:13;;;;;;;16.00;10.80;;;;;;;4.37;85.30;97153.28;4204587;28;20024;-73
2022/04/24 04:16:14;;;;;;;18.58;12.55;;;;;;;4.40;85.65;97162.72;4204586;28;20494;-73
2022/04/24 04:18:14;;;;;;;19.30;12.70;;;;;;;4.38;85.61;97157.59;4211060;27;20031;-73
2022/04/24 04:20:14;;;;;;;19.60;12.90;;;;;;;4.36;85.64;97159.13;4203753;28;20032;-73
2022/04/24 04:22:14;;;;;;;15.95;11.55;;;;;;;4.33;86.57;97157.13;4203617;28;20519;-73
2022/04/24 04:24:16;;;;;;;17.98;11.65;;;;;;;4.32;86.24;97158.31;4204115;28;20040;-73
2022/04/24 04:26:17;;;;;;;18.40;11.88;;;;;;;4.33;86.66;97157.13;4203472;28;20298;-72
2022/04/24 04:28:17;;;;;;;18.30;11.90;;;;;;;4.30;87.21;97150.44;4202940;28;20035;-73
2022/04/24 04:30:18;;;;;;;19.75;12.95;;;;;;;4.34;86.82;97154.03;4203862;28;20028;-73
2022/04/24 04:32:19;;;;;;;17.75;12.73;;;;;;;4.32;87.03;97147.34;4203759;28;20039;-73
2022/04/24 04:34:19;;;;;;;18.48;12.88;;;;;;;4.32;86.94;97150.09;4203169;28;20028;-72
2022/04/24 04:36:20;;;;;;;17.45;12.23;;;;;;;4.30;86.92;97150.44;4208876;28;20024;-73
2022/04/24 04:38:20;;;;;;;18.95;13.05;;;;;;;4.33;87.07;97148.94;4203187;28;20047;-73
2022/04/24 04:40:20;;;;;;;18.30;12.75;;;;;;;4.32;87.13;97150.88;4204529;28;20438;-73
2022/04/24 04:42:21;;;;;;;19.08;13.02;;;;;;;4.36;87.38;97148.97;4204139;28;20248;-73
2022/04/24 04:44:21;;;;;;;20.85;13.27;;;;;;;4.39;87.30;97159.19;4203342;28;20048;-73
2022/04/24 04:46:21;;;;;;;19.48;13.98;;;;;;;4.43;86.77;97149.06;4202749;28;20067;-73
2022/04/24 04:48:22;;;;;;;20.63;14.50;;;;;;;4.47;87.37;97162.84;4202404;28;20048;-73
2022/04/24 04:50:22;;;;;;;22.52;14.13;;;;;;;4.53;87.55;97157.81;4205024;28;20044;-73
2022/04/24 04:52:23;;;;;;;18.55;11.90;;;;;;;4.58;86.94;97154.75;4203318;28;20471;-72
2022/04/24 04:54:23;;;;;;;18.38;12.75;;;;;;;4.59;86.61;97153.59;4202599;28;20476;-73
2022/04/24 04:56:23;;;;;;;16.70;12.30;;;;;;;4.64;86.25;97156.00;4202457;28;20032;-73
2022/04/24 04:58:24;;;;;;;19.52;13.80;;;;;;;4.64;86.90;97156.81;4202389;28;20036;-72
2022/04/24 05:00:24;;;;;;;18.10;13.02;;;;;;;4.67;85.80;97156.06;4202941;28;20040;-73
2022/04/24 05:02:25;;;;;;;21.05;14.00;;;;;;;4.68;85.92;97157.63;4203041;28;20044;-73
2022/04/24 05:04:25;;;;;;;18.75;12.48;;;;;;;4.72;85.58;97157.69;4203184;28;20483;-73
2022/04/24 05:06:25;;;;;;;19.60;12.95;;;;;;;4.75;85.04;97162.41;4202662;28;20268;-73
2022/04/24 05:08:26;;;;;;;19.13;13.90;;;;;;;4.81;85.45;97166.41;4202335;28;20423;-73
2022/04/24 05:10:26;;;;;;;17.48;12.60;;;;;;;4.82;85.57;97168.00;4204772;28;20055;-73
2022/04/24 05:12:27;;;;;;;17.10;12.05;;;;;;;4.82;85.26;97167.22;4203023;28;20441;-73
2022/04/24 05:14:28;;;;;;;17.88;12.68;;;;;;;4.82;85.92;97162.50;4204182;28;20032;-73
2022/04/24 05:16:29;;;;;;;18.30;11.93;;;;;;;4.83;85.34;97163.31;4208196;28;20145;-73
2022/04/24 05:18:29;;;;;;;19.58;13.75;;;;;;;4.87;85.29;97164.91;4202717;28;20187;-73
2022/04/24 05:20:29;;;;;;;16.88;12.25;;;;;;;4.93;85.25;97171.66;4202967;28;20148;-73
2022/04/24 05:22:30;;;;;;;17.40;12.07;;;;;;;4.98;85.47;97170.53;4202803;28;20048;-73
2022/04/24 05:24:30;;;;;;;18.05;12.20;;;;;;;5.04;85.07;97169.03;4207785;28;20351;-73
2022/04/24 05:26:31;;;;;;;18.10;12.93;;;;;;;5.08;84.66;97165.19;4214034;27;20114;-73
2022/04/24 05:28:31;;;;;;;19.48;12.98;;;;;;;5.16;84.52;97174.28;4202299;28;20055;-73
2022/04/24 05:30:33;;;;;;;19.70;13.40;;;;;;;5.19;85.23;97162.56;4208654;27;20063;-73
2022/04/24 05:32:49;;;;;;;19.00;12.23;;;;;;;5.28;84.68;97171.28;4203354;28;20075;-73
2022/04/24 05:34:49;;;;;;;19.90;12.85;;;;;;;5.34;84.70;97166.25;4202865;28;20036;-73
2022/04/24 05:36:50;;;;;;;20.10;13.65;;;;;;;5.44;83.79;97171.06;4202475;28;20044;-73
2022/04/24 05:38:50;;;;;;;19.63;13.15;;;;;;;5.53;85.00;97162.53;4202914;28;20048;-73
2022/04/24 05:40:51;;;;;;;17.35;12.73;;;;;;;5.61;84.11;97167.69;4202740;28;20032;-73
2022/04/24 05:42:55;;;;;;;17.63;12.60;;;;;;;5.70;83.84;97169.34;4207502;28;20050;-73
2022/04/24 05:45:00;;;;;;;16.13;11.07;;;;;;;5.76;82.95;97165.09;4212031;28;20039;-73
2022/04/24 05:47:01;;;;;;;15.65;11.18;;;;;;;5.86;81.20;97164.41;4200756;28;20071;-73
2022/04/24 05:49:02;;;;;;;19.60;13.35;;;;;;;5.97;82.39;97176.31;4202327;28;20055;-73
2022/04/24 05:51:03;;;;;;;19.52;12.75;;;;;;;6.04;81.06;97170.91;4202531;28;20191;-73
2022/04/24 05:53:03;;;;;;;20.42;13.48;;;;;;;6.07;80.64;97167.38;4202886;28;20178;-73
2022/04/24 05:55:04;;;;;;;19.67;13.02;;;;;;;6.19;80.43;97169.03;4202317;28;20379;-72
2022/04/24 05:57:04;;;;;;;19.40;13.63;;;;;;;6.24;83.16;97173.38;4201952;28;20040;-73
2022/04/24 05:59:05;;;;;;;16.65;12.95;;;;;;;6.30;81.31;97171.88;4201924;28;20369;-73
2022/04/24 06:01:05;;;;;;;19.30;13.55;;;;;;;6.34;80.57;97173.47;4208769;27;20044;-73
2022/04/24 06:03:06;;;;;;;18.98;13.15;;;;;;;6.38;79.80;97173.50;4202029;28;20087;-73
2022/04/24 06:05:07;;;;;;;17.98;12.90;;;;;;;6.44;81.26;97171.94;4141414;27;20036;-73
2022/04/24 06:07:07;;;;;;;19.05;12.73;;;;;;;6.46;79.86;97175.91;4201990;28;20453;-73
2022/04/24 06:09:08;;;;;;;17.35;12.60;;;;;;;6.49;79.49;97174.34;4214567;28;20131;-73
2022/04/24 06:11:08;;;;;;;16.63;12.52;;;;;;;6.54;81.18;97168.50;4208084;28;20423;-73
2022/04/24 06:13:09;;;;;;;17.50;12.85;;;;;;;6.57;79.27;97164.97;4205194;28;20048;-73
2022/04/24 06:15:15;;;;;;;17.90;12.73;;;;;;;6.58;78.86;97171.25;4215949;27;20061;-73
2022/04/24 06:17:15;;;;;;;16.88;11.68;;;;;;;6.66;79.94;97167.38;4206015;28;20154;-73
2022/04/24 06:19:15;;;;;;;16.02;11.88;;;;;;;6.73;79.58;97172.94;4205540;28;20052;-73
2022/04/24 06:21:15;;;;;;;19.00;12.60;;;;;;;6.76;78.74;97161.94;4209936;28;20154;-73
2022/04/24 06:23:16;;;;;;;17.15;12.20;;;;;;;6.80;77.84;97158.44;4210669;28;20051;-73
2022/04/24 06:25:20;;;;;;;21.95;12.55;;;;;;;6.89;78.84;97164.38;4214604;28;20415;-73
2022/04/24 06:27:20;;;;;;;17.20;12.43;;;;;;;6.96;78.60;97164.41;4217219;27;20040;-73
2022/04/24 06:29:21;;;;;;;19.63;12.55;;;;;;;7.00;77.99;97159.69;4205509;28;20066;-73
2022/04/24 06:31:21;;;;;;;18.33;13.55;;;;;;;7.05;79.27;97167.59;4205112;28;20098;-73
2022/04/24 06:33:21;;;;;;;20.58;13.60;;;;;;;7.11;77.91;97168.00;4206461;28;20506;-73
2022/04/24 06:35:22;;;;;;;18.17;12.15;;;;;;;7.13;77.77;97162.91;4205220;28;20384;-73
2022/04/24 06:37:22;;;;;;;17.00;11.57;;;;;;;7.20;78.08;97162.91;4204198;28;20537;-73
2022/04/24 06:39:22;;;;;;;16.63;12.23;;;;;;;7.26;77.43;97166.88;4205161;28;20051;-73
2022/04/24 06:41:23;;;;;;;19.13;11.40;;;;;;;7.21;75.54;97161.75;4205112;28;20548;-73
2022/04/24 06:43:23;;;;;;;18.52;12.40;;;;;;;7.26;76.09;97150.38;4203626;28;20044;-73
2022/04/24 06:45:29;;;;;;;18.60;12.40;;;;;;;7.34;77.24;97154.72;4208092;28;20125;-73
2022/04/24 06:47:30;;;;;;;17.23;12.30;;;;;;;7.39;75.94;97153.56;4208819;28;20044;-73
2022/04/24 06:49:30;;;;;;;19.60;12.60;;;;;;;7.42;76.47;97156.31;4216190;27;20039;-73
2022/04/24 06:51:30;;;;;;;19.17;13.13;;;;;;;7.46;75.66;97157.13;4205365;28;20153;-73
2022/04/24 06:53:31;;;;;;;17.60;12.93;;;;;;;7.47;75.92;97155.16;4204774;28;20055;-73
2022/04/24 06:55:33;;;;;;;18.75;12.65;;;;;;;7.47;75.41;97157.91;4207032;28;20134;-73
2022/04/24 06:57:33;;;;;;;17.75;12.18;;;;;;;7.49;75.61;97155.56;4207878;27;20396;-73
2022/04/24 06:59:34;;;;;;;17.23;12.65;;;;;;;7.54;75.88;97157.94;4204714;28;20495;-73
2022/04/24 07:01:34;;;;;;;15.23;11.15;;;;;;;7.58;75.81;97161.47;4213470;27;20155;-73
2022/04/24 07:03:34;;;;;;;16.80;12.27;;;;;;;7.59;76.28;97149.28;4207277;28;20482;-73
2022/04/24 07:05:35;;;;;;;17.20;12.52;;;;;;;7.65;76.04;97153.22;4205293;28;20046;-73
2022/04/24 07:07:35;;;;;;;21.60;14.50;;;;;;;7.61;75.27;97152.41;4204017;28;20040;-73
2022/04/24 07:09:36;;;;;;;16.80;13.13;;;;;;;7.67;75.78;97153.63;4205018;28;20298;-73
2022/04/24 07:11:36;;;;;;;24.85;15.85;;;;;;;7.70;75.60;97158.34;4208924;27;20501;-73
2022/04/24 07:13:38;;;;;;;35.40;20.67;;;;;;;7.74;75.59;97163.84;4204193;28;20036;-73
2022/04/24 07:15:39;;;;;;;23.75;15.27;;;;;;;7.73;75.24;97154.81;4204670;28;20040;-73
2022/04/24 07:17:42;;;;;;;23.17;14.90;;;;;;;7.76;75.57;97155.97;4204087;28;20788;-73
2022/04/24 07:19:42;;;;;;;27.15;17.80;;;;;;;7.77;74.91;97160.31;4204014;28;20052;-72
2022/04/24 07:21:42;;;;;;;20.98;14.30;;;;;;;7.78;75.02;97153.66;4204405;28;20726;-73
2022/04/24 07:23:42;;;;;;;16.92;12.55;;;;;;;7.76;74.73;97156.78;4204476;28;20059;-73
2022/04/24 07:25:44;;;;;;;21.77;13.93;;;;;;;7.80;74.04;97157.56;4207852;27;20779;-73
2022/04/24 07:27:44;;;;;;;30.75;16.58;;;;;;;7.82;74.15;97157.19;4204483;28;20043;-73
2022/04/24 07:29:45;;;;;;;16.05;12.50;;;;;;;7.83;73.97;97156.78;4205207;28;20036;-73
2022/04/24 07:31:45;;;;;;;17.35;12.45;;;;;;;7.82;74.57;97152.47;4206696;27;20506;-73
2022/04/24 07:33:45;;;;;;;19.30;13.75;;;;;;;7.82;74.40;97151.66;4204550;28;20038;-73
2022/04/24 07:35:45;;;;;;;17.83;12.75;;;;;;;7.82;74.45;97155.22;4204055;28;20040;-73
2022/04/24 07:37:46;;;;;;;16.75;12.73;;;;;;;7.85;75.05;97162.69;4206831;28;20472;-73
2022/04/24 07:39:46;;;;;;;21.73;16.52;;;;;;;7.92;74.62;97150.09;4207203;28;20382;-73
2022/04/24 07:41:47;;;;;;;17.00;13.23;;;;;;;7.95;74.54;97149.34;4205215;28;20036;-73
2022/04/24 07:43:49;;;;;;;20.90;15.38;;;;;;;7.97;73.91;97157.97;4203499;28;20725;-73
2022/04/24 07:45:49;;;;;;;20.67;14.65;;;;;;;7.97;74.22;97152.47;4204215;28;20043;-73
2022/04/24 07:47:51;;;;;;;33.22;19.50;;;;;;;8.04;74.96;97149.72;4202718;28;20040;-73
2022/04/24 07:49:51;;;;;;;46.00;24.50;;;;;;;8.07;75.32;97148.94;4203966;28;20470;-73
2022/04/24 07:51:52;;;;;;;32.53;20.40;;;;;;;8.13;74.36;97153.66;4207839;28;20036;-73
2022/04/24 07:53:52;;;;;;;24.38;17.08;;;;;;;8.12;74.44;97154.84;4204383;28;20052;-73
2022/04/24 07:55:52;;;;;;;27.73;17.27;;;;;;;8.15;73.78;97151.28;4204134;28;20032;-73
2022/04/24 07:57:54;;;;;;;22.35;15.77;;;;;;;8.19;73.30;97154.03;4203209;28;20032;-73
2022/04/24 07:59:54;;;;;;;37.57;24.57;;;;;;;8.22;74.61;97150.50;4207210;28;20257;-73
2022/04/24 08:01:56;;;;;;;34.88;20.75;;;;;;;8.30;74.49;97152.06;4210215;28;20039;-73
2022/04/24 08:03:56;;;;;;;27.92;16.98;;;;;;;8.33;73.56;97151.28;4209476;28;20055;-73
2022/04/24 08:05:57;;;;;;;20.17;14.23;;;;;;;8.38;74.54;97152.88;4204314;27;20040;-73
2022/04/24 08:08:00;;;;;;;20.90;15.13;;;;;;;8.42;73.31;97143.41;4201434;28;20119;-73
2022/04/24 08:10:00;;;;;;;18.10;13.02;;;;;;;8.40;71.33;97161.53;4208596;28;20072;-73
2022/04/24 08:12:00;;;;;;;19.17;13.65;;;;;;;8.44;70.75;97154.84;4203625;28;20039;-73
2022/04/24 08:14:01;;;;;;;19.00;13.20;;;;;;;8.49;72.16;97150.91;4203505;28;20403;-73
2022/04/24 08:16:02;;;;;;;18.75;13.13;;;;;;;8.46;70.77;97139.88;4203905;28;20460;-73
2022/04/24 08:18:04;;;;;;;16.70;12.07;;;;;;;8.49;71.03;97150.09;4202712;28;20059;-73
2022/04/24 08:20:07;;;;;;;16.00;11.95;;;;;;;8.47;70.50;97153.28;4185585;28;20043;-73
2022/04/24 08:22:07;;;;;;;17.77;12.40;;;;;;;8.44;70.25;97154.06;4203331;28;20840;-73
2022/04/24 08:24:08;;;;;;;18.25;12.32;;;;;;;8.44;71.58;97151.31;4202995;28;20107;-73
2022/04/24 08:26:10;;;;;;;14.75;11.55;;;;;;;8.44;71.77;97145.81;4205885;28;20031;-73
2022/04/24 08:28:12;;;;;;;17.05;12.98;;;;;;;8.40;72.11;97145.78;4205949;27;20092;-73
2022/04/24 08:30:13;;;;;;;19.27;13.10;;;;;;;8.44;72.85;97154.84;4209428;28;20360;-73
2022/04/24 08:32:14;;;;;;;18.13;13.15;;;;;;;8.44;72.03;97149.34;4203497;28;20077;-73
2022/04/24 08:34:15;;;;;;;15.93;12.27;;;;;;;8.51;72.73;97150.50;4203759;28;20098;-73
2022/04/24 08:36:15;;;;;;;20.55;13.40;;;;;;;8.53;72.89;97153.66;4203181;28;20031;-73
2022/04/24 08:38:16;;;;;;;18.98;12.38;;;;;;;8.54;73.19;97153.25;4207291;28;20056;-73
2022/04/24 08:40:18;;;;;;;20.08;12.57;;;;;;;8.57;72.85;97154.44;4202351;28;20039;-73
2022/04/24 08:42:21;;;;;;;17.85;12.48;;;;;;;8.59;72.60;97154.81;4203988;28;20028;-73
2022/04/24 08:44:21;;;;;;;15.65;11.98;;;;;;;8.57;72.02;97146.94;4203089;28;20076;-73
2022/04/24 08:46:23;;;;;;;19.25;13.05;;;;;;;8.57;71.96;97151.66;4203045;28;20142;-73
2022/04/24 08:48:24;;;;;;;15.93;12.00;;;;;;;8.53;72.41;97156.41;4205597;28;20372;-73
2022/04/24 08:50:30;;;;;;;15.65;11.95;;;;;;;8.53;73.32;97148.16;4203522;28;20032;-73
2022/04/24 08:52:31;;;;;;;16.45;12.10;;;;;;;8.49;73.27;97155.63;4201710;28;20482;-73
2022/04/24 08:54:31;;;;;;;16.55;11.80;;;;;;;8.44;73.48;97148.56;4214558;27;20062;-73
2022/04/24 08:56:32;;;;;;;16.45;11.95;;;;;;;8.46;73.70;97150.91;4203342;28;20062;-73
2022/04/24 08:58:32;;;;;;;17.52;11.73;;;;;;;8.43;72.82;97147.75;4202749;28;20052;-73
2022/04/24 09:00:33;;;;;;;16.88;11.93;;;;;;;8.39;72.47;97158.00;4203353;28;20132;-73
2022/04/24 09:02:34;;;;;;;16.20;11.98;;;;;;;8.41;73.70;97163.91;4205460;28;20119;-73
2022/04/24 09:04:36;;;;;;;17.17;12.68;;;;;;;8.35;73.13;97151.69;4205782;28;20101;-73
2022/04/24 09:06:36;;;;;;;17.98;12.60;;;;;;;8.35;72.83;97148.94;4202244;28;20047;-73
2022/04/24 09:08:38;;;;;;;16.95;11.70;;;;;;;8.34;73.42;97152.84;4203021;28;20199;-73
2022/04/24 09:10:52;;;;;;;15.40;11.80;;;;;;;8.34;73.36;97154.81;4204026;28;20060;-73
2022/04/24 09:12:53;;;;;;;16.48;11.70;;;;;;;8.32;74.35;97155.22;4209294;27;20461;-73
2022/04/24 09:14:55;;;;;;;15.93;12.02;;;;;;;8.28;75.16;97151.69;4202476;28;20043;-73
2022/04/24 09:16:57;;;;;;;17.50;13.25;;;;;;;8.23;74.65;97157.59;4206165;28;20714;-73
2022/04/24 09:18:57;;;;;;;18.17;12.90;;;;;;;8.22;75.42;97153.25;4203200;28;20095;-73
2022/04/24 09:20:58;;;;;;;19.10;13.00;;;;;;;8.21;76.51;97159.19;4210955;27;20077;-73
2022/04/24 09:23:03;;;;;;;17.73;13.05;;;;;;;8.18;78.56;97153.25;4204314;28;20042;-72